sensor_id;sensor_type;location;lat;lon;timestamp;pressure;altitude;pressure_sealevel;temperature;humidity
64610;BME280;51019;46.090;6.350;2022-07-04T00:00:43;96844.16;;;19.40;100.00
64610;BME280;51019;46.090;6.350;2022-07-04T00:03:09;96850.47;;;19.39;100.00
64610;BME280;51019;46.090;6.350;2022-07-04T00:05:35;96854.28;;;19.30;100.00
64610;BME280;51019;46.090;6.350;2022-07-04T00:08:01;96851.03;;;19.34;100.00
64610;BME280;51019;46.090;6.350;2022-07-04T00:10:27;96844.94;;;19.19;100.00
64610;BME280;51019;46.090;6.350;2022-07-04T00:12:52;96840.09;;;19.22;100.00
64610;BME280;51019;46.090;6.350;2022-07-04T00:15:18;96825.56;;;19.18;100.00
64610;BME280;51019;46.090;6.350;2022-07-04T00:17:44;96798.75;;;18.99;100.00
64610;BME280;51019;46.090;6.350;2022-07-04T00:20:10;96820.28;;;19.04;100.00
64610;BME280;51019;46.090;6.350;2022-07-04T00:22:36;96817.25;;;19.28;100.00
64610;BME280;51019;46.090;6.350;2022-07-04T00:25:02;96816.19;;;19.22;100.00
64610;BME280;51019;46.090;6.350;2022-07-04T00:27:29;96808.16;;;19.16;100.00
64610;BME280;51019;46.090;6.350;2022-07-04T00:29:54;96806.38;;;19.02;100.00
64610;BME280;51019;46.090;6.350;2022-07-04T00:32:20;96755.53;;;18.83;100.00
64610;BME280;51019;46.090;6.350;2022-07-04T00:34:46;96802.00;;;19.15;100.00
64610;BME280;51019;46.090;6.350;2022-07-04T00:37:11;96802.06;;;19.22;100.00
64610;BME280;51019;46.090;6.350;2022-07-04T00:39:37;96803.84;;;19.36;100.00
64610;BME280;51019;46.090;6.350;2022-07-04T00:42:04;96822.63;;;19.35;100.00
64610;BME280;51019;46.090;6.350;2022-07-04T00:44:30;96808.16;;;19.16;100.00
64610;BME280;51019;46.090;6.350;2022-07-04T00:47:00;96818.69;;;19.09;100.00
64610;BME280;51019;46.090;6.350;2022-07-04T00:49:26;96825.91;;;18.94;100.00
64610;BME280;51019;46.090;6.350;2022-07-04T00:51:52;96794.63;;;18.75;100.00
64610;BME280;51019;46.090;6.350;2022-07-04T00:54:20;96835.66;;;18.72;100.00
64610;BME280;51019;46.090;6.350;2022-07-04T00:56:47;96805.72;;;18.49;100.00
64610;BME280;51019;46.090;6.350;2022-07-04T00:59:12;96845.72;;;18.77;100.00
64610;BME280;51019;46.090;6.350;2022-07-04T01:01:38;96854.31;;;18.79;100.00
64610;BME280;51019;46.090;6.350;2022-07-04T01:04:06;96868.16;;;18.60;100.00
64610;BME280;51019;46.090;6.350;2022-07-04T01:06:34;96878.56;;;18.76;100.00
64610;BME280;51019;46.090;6.350;2022-07-04T01:09:00;96871.44;;;18.76;100.00
64610;BME280;51019;46.090;6.350;2022-07-04T01:11:28;96840.13;;;18.57;100.00
64610;BME280;51019;46.090;6.350;2022-07-04T01:13:54;96864.03;;;18.72;100.00
64610;BME280;51019;46.090;6.350;2022-07-04T01:16:19;96861.22;;;18.73;100.00
64610;BME280;51019;46.090;6.350;2022-07-04T01:18:45;96857.50;;;18.74;100.00
64610;BME280;51019;46.090;6.350;2022-07-04T01:21:11;96858.97;;;18.77;100.00
64610;BME280;51019;46.090;6.350;2022-07-04T01:23:40;96878.31;;;18.27;100.00
64610;BME280;51019;46.090;6.350;2022-07-04T01:26:07;96882.97;;;18.25;100.00
64610;BME280;51019;46.090;6.350;2022-07-04T01:28:34;96876.44;;;18.42;100.00
64610;BME280;51019;46.090;6.350;2022-07-04T01:31:00;96877.38;;;18.49;100.00
64610;BME280;51019;46.090;6.350;2022-07-04T01:33:26;96881.88;;;18.48;100.00
64610;BME280;51019;46.090;6.350;2022-07-04T01:35:55;96863.13;;;18.50;100.00
64610;BME280;51019;46.090;6.350;2022-07-04T01:38:21;96849.28;;;18.40;100.00
64610;BME280;51019;46.090;6.350;2022-07-04T01:40:47;96869.94;;;18.30;100.00
64610;BME280;51019;46.090;6.350;2022-07-04T01:43:13;96866.00;;;18.11;100.00
64610;BME280;51019;46.090;6.350;2022-07-04T01:45:40;96859.16;;;18.31;100.00
64610;BME280;51019;46.090;6.350;2022-07-04T01:48:09;96809.13;;;17.99;100.00
64610;BME280;51019;46.090;6.350;2022-07-04T01:50:36;96870.16;;;18.43;100.00
64610;BME280;51019;46.090;6.350;2022-07-04T01:53:01;96864.47;;;18.31;100.00
64610;BME280;51019;46.090;6.350;2022-07-04T01:55:27;96807.22;;;17.93;100.00
64610;BME280;51019;46.090;6.350;2022-07-04T01:57:53;96861.09;;;18.37;100.00
64610;BME280;51019;46.090;6.350;2022-07-04T02:00:19;96861.00;;;18.45;100.00
64610;BME280;51019;46.090;6.350;2022-07-04T02:03:04;96851.03;;;18.33;100.00
64610;BME280;51019;46.090;6.350;2022-07-04T02:05:32;96837.75;;;18.47;100.00
64610;BME280;51019;46.090;6.350;2022-07-04T02:07:58;96821.84;;;18.33;100.00
64610;BME280;51019;46.090;6.350;2022-07-04T02:10:24;96827.97;;;18.48;100.00
64610;BME280;51019;46.090;6.350;2022-07-04T02:12:49;96804.72;;;18.35;100.00
64610;BME280;51019;46.090;6.350;2022-07-04T02:15:31;96810.50;;;18.39;100.00
64610;BME280;51019;46.090;6.350;2022-07-04T02:17:59;96793.94;;;18.37;100.00
64610;BME280;51019;46.090;6.350;2022-07-04T02:20:25;96803.91;;;18.35;100.00
64610;BME280;51019;46.090;6.350;2022-07-04T02:22:51;96803.41;;;18.75;100.00
64610;BME280;51019;46.090;6.350;2022-07-04T02:25:17;96806.81;;;18.69;100.00
64610;BME280;51019;46.090;6.350;2022-07-04T02:27:43;96820.84;;;18.48;100.00
64610;BME280;51019;46.090;6.350;2022-07-04T02:30:08;96836.56;;;18.50;100.00
64610;BME280;51019;46.090;6.350;2022-07-04T02:32:36;96844.91;;;18.47;100.00
64610;BME280;51019;46.090;6.350;2022-07-04T02:35:02;96853.13;;;18.52;100.00
64610;BME280;51019;46.090;6.350;2022-07-04T02:37:28;96831.91;;;18.37;100.00
64610;BME280;51019;46.090;6.350;2022-07-04T02:39:56;96857.16;;;18.48;100.00
64610;BME280;51019;46.090;6.350;2022-07-04T02:42:22;96868.25;;;18.37;100.00
64610;BME280;51019;46.090;6.350;2022-07-04T02:44:48;96859.56;;;18.28;100.00
64610;BME280;51019;46.090;6.350;2022-07-04T02:47:14;96878.09;;;18.43;100.00
64610;BME280;51019;46.090;6.350;2022-07-04T02:49:41;96888.25;;;18.54;100.00
64610;BME280;51019;46.090;6.350;2022-07-04T02:52:07;96874.81;;;18.56;100.00
64610;BME280;51019;46.090;6.350;2022-07-04T02:54:34;96873.09;;;18.48;100.00
64610;BME280;51019;46.090;6.350;2022-07-04T02:56:59;96879.13;;;18.27;100.00
64610;BME280;51019;46.090;6.350;2022-07-04T02:59:25;96875.28;;;18.44;100.00
64610;BME280;51019;46.090;6.350;2022-07-04T03:01:51;96874.25;;;18.31;100.00
64610;BME280;51019;46.090;6.350;2022-07-04T03:04:17;96886.75;;;18.07;100.00
64610;BME280;51019;46.090;6.350;2022-07-04T03:06:42;96871.13;;;17.98;100.00
64610;BME280;51019;46.090;6.350;2022-07-04T03:09:08;96883.41;;;18.13;100.00
64610;BME280;51019;46.090;6.350;2022-07-04T03:11:34;96890.34;;;18.14;100.00
64610;BME280;51019;46.090;6.350;2022-07-04T03:14:01;96879.72;;;18.00;100.00
64610;BME280;51019;46.090;6.350;2022-07-04T03:16:28;96908.06;;;17.99;100.00
64610;BME280;51019;46.090;6.350;2022-07-04T03:18:55;96899.53;;;18.27;100.00
64610;BME280;51019;46.090;6.350;2022-07-04T03:31:20;96916.56;;;18.47;100.00
64610;BME280;51019;46.090;6.350;2022-07-04T03:33:46;96894.66;;;18.45;100.00
64610;BME280;51019;46.090;6.350;2022-07-04T03:36:12;96888.16;;;18.33;100.00
64610;BME280;51019;46.090;6.350;2022-07-04T03:38:37;96892.19;;;18.29;100.00
64610;BME280;51019;46.090;6.350;2022-07-04T03:41:03;96887.97;;;18.20;100.00
64610;BME280;51019;46.090;6.350;2022-07-04T03:43:30;96898.06;;;18.24;100.00
64610;BME280;51019;46.090;6.350;2022-07-04T03:45:55;96910.88;;;18.50;100.00
64610;BME280;51019;46.090;6.350;2022-07-04T03:48:21;96881.41;;;18.45;100.00
64610;BME280;51019;46.090;6.350;2022-07-04T03:50:46;96903.38;;;18.54;100.00
64610;BME280;51019;46.090;6.350;2022-07-04T03:53:12;96907.91;;;18.30;100.00
64610;BME280;51019;46.090;6.350;2022-07-04T03:55:41;96916.78;;;18.23;100.00
64610;BME280;51019;46.090;6.350;2022-07-04T03:58:07;96924.47;;;18.18;100.00
64610;BME280;51019;46.090;6.350;2022-07-04T04:00:33;96903.50;;;17.93;100.00
64610;BME280;51019;46.090;6.350;2022-07-04T04:02:59;96935.97;;;18.10;100.00
64610;BME280;51019;46.090;6.350;2022-07-04T04:05:26;96913.53;;;17.98;100.00
64610;BME280;51019;46.090;6.350;2022-07-04T04:07:53;96932.53;;;18.24;100.00
64610;BME280;51019;46.090;6.350;2022-07-04T04:10:19;96889.97;;;18.03;100.00
64610;BME280;51019;46.090;6.350;2022-07-04T04:12:44;96928.53;;;18.43;100.00
64610;BME280;51019;46.090;6.350;2022-07-04T04:15:12;96920.28;;;18.23;100.00
64610;BME280;51019;46.090;6.350;2022-07-04T04:17:37;96901.03;;;18.06;100.00
64610;BME280;51019;46.090;6.350;2022-07-04T04:20:04;96913.09;;;18.09;100.00
64610;BME280;51019;46.090;6.350;2022-07-04T04:22:31;96910.19;;;18.19;100.00
64610;BME280;51019;46.090;6.350;2022-07-04T04:24:57;96896.75;;;18.20;100.00
64610;BME280;51019;46.090;6.350;2022-07-04T04:27:23;96882.66;;;18.20;100.00
64610;BME280;51019;46.090;6.350;2022-07-04T04:29:49;96872.78;;;18.13;100.00
64610;BME280;51019;46.090;6.350;2022-07-04T04:32:14;96876.28;;;18.43;100.00
64610;BME280;51019;46.090;6.350;2022-07-04T04:34:40;96894.41;;;18.55;100.00
64610;BME280;51019;46.090;6.350;2022-07-04T04:37:06;96897.69;;;18.42;100.00
64610;BME280;51019;46.090;6.350;2022-07-04T04:39:33;96903.28;;;18.47;100.00
64610;BME280;51019;46.090;6.350;2022-07-04T04:41:59;96921.44;;;18.58;100.00
64610;BME280;51019;46.090;6.350;2022-07-04T04:44:24;96909.84;;;18.51;100.00
64610;BME280;51019;46.090;6.350;2022-07-04T04:46:50;96874.06;;;18.32;100.00
64610;BME280;51019;46.090;6.350;2022-07-04T04:49:16;96918.59;;;18.60;100.00
64610;BME280;51019;46.090;6.350;2022-07-04T04:51:42;96905.13;;;18.46;100.00
64610;BME280;51019;46.090;6.350;2022-07-04T04:54:08;96913.34;;;18.51;100.00
64610;BME280;51019;46.090;6.350;2022-07-04T04:56:35;96924.34;;;18.63;100.00
64610;BME280;51019;46.090;6.350;2022-07-04T04:59:00;96927.47;;;18.67;100.00
64610;BME280;51019;46.090;6.350;2022-07-04T05:01:26;96909.13;;;18.57;100.00
64610;BME280;51019;46.090;6.350;2022-07-04T05:03:52;96929.31;;;18.66;100.00
64610;BME280;51019;46.090;6.350;2022-07-04T05:06:18;96918.84;;;18.50;100.00
64610;BME280;51019;46.090;6.350;2022-07-04T05:08:44;96920.69;;;18.49;100.00
64610;BME280;51019;46.090;6.350;2022-07-04T05:11:11;96920.13;;;18.54;100.00
64610;BME280;51019;46.090;6.350;2022-07-04T05:13:37;96924.09;;;18.73;100.00
64610;BME280;51019;46.090;6.350;2022-07-04T05:16:03;96905.19;;;18.53;100.00
64610;BME280;51019;46.090;6.350;2022-07-04T05:18:29;96914.44;;;18.86;100.00
64610;BME280;51019;46.090;6.350;2022-07-04T05:20:54;96908.13;;;19.02;100.00
64610;BME280;51019;46.090;6.350;2022-07-04T05:23:27;96878.94;;;18.88;100.00
64610;BME280;51019;46.090;6.350;2022-07-04T05:25:52;96905.75;;;19.07;100.00
64610;BME280;51019;46.090;6.350;2022-07-04T05:28:19;96906.28;;;19.17;100.00
64610;BME280;51019;46.090;6.350;2022-07-04T05:30:44;96881.25;;;19.12;100.00
64610;BME280;51019;46.090;6.350;2022-07-04T05:33:10;96895.56;;;19.32;100.00
64610;BME280;51019;46.090;6.350;2022-07-04T05:35:36;96890.53;;;19.37;100.00
64610;BME280;51019;46.090;6.350;2022-07-04T05:38:02;96906.13;;;19.40;100.00
64610;BME280;51019;46.090;6.350;2022-07-04T05:40:29;96906.72;;;19.42;100.00
64610;BME280;51019;46.090;6.350;2022-07-04T05:42:54;96907.16;;;19.61;100.00
64610;BME280;51019;46.090;6.350;2022-07-04T05:45:20;96901.66;;;19.62;100.00
64610;BME280;51019;46.090;6.350;2022-07-04T05:47:47;96886.41;;;19.71;100.00
64610;BME280;51019;46.090;6.350;2022-07-04T05:50:12;96908.81;;;19.83;100.00
64610;BME280;51019;46.090;6.350;2022-07-04T05:52:39;96864.41;;;19.41;100.00
64610;BME280;51019;46.090;6.350;2022-07-04T05:55:05;96908.84;;;19.68;100.00
64610;BME280;51019;46.090;6.350;2022-07-04T05:57:32;96906.97;;;19.62;100.00
64610;BME280;51019;46.090;6.350;2022-07-04T05:59:58;96914.56;;;19.29;100.00
64610;BME280;51019;46.090;6.350;2022-07-04T06:02:23;96885.63;;;19.55;100.00
64610;BME280;51019;46.090;6.350;2022-07-04T06:04:49;96910.31;;;19.71;100.00
64610;BME280;51019;46.090;6.350;2022-07-04T06:07:15;96910.50;;;19.69;100.00
64610;BME280;51019;46.090;6.350;2022-07-04T06:09:40;96914.88;;;19.77;100.00
64610;BME280;51019;46.090;6.350;2022-07-04T06:12:06;96901.25;;;19.65;100.00
64610;BME280;51019;46.090;6.350;2022-07-04T06:14:31;96869.31;;;19.86;100.00
64610;BME280;51019;46.090;6.350;2022-07-04T06:16:57;96921.53;;;20.37;97.90
64610;BME280;51019;46.090;6.350;2022-07-04T06:19:24;96895.19;;;20.48;96.55
64610;BME280;51019;46.090;6.350;2022-07-04T06:21:51;96904.44;;;20.87;94.78
64610;BME280;51019;46.090;6.350;2022-07-04T06:24:17;96902.03;;;21.05;94.29
64610;BME280;51019;46.090;6.350;2022-07-04T06:26:42;96892.63;;;20.68;96.72
64610;BME280;51019;46.090;6.350;2022-07-04T06:29:08;96914.97;;;20.67;96.13
64610;BME280;51019;46.090;6.350;2022-07-04T06:31:33;96914.47;;;20.50;97.09
64610;BME280;51019;46.090;6.350;2022-07-04T06:33:59;96888.22;;;20.47;94.40
64610;BME280;51019;46.090;6.350;2022-07-04T06:36:44;96910.22;;;21.03;92.08
64610;BME280;51019;46.090;6.350;2022-07-04T06:39:09;96909.22;;;21.05;92.94
64610;BME280;51019;46.090;6.350;2022-07-04T06:41:35;96900.72;;;21.29;92.36
64610;BME280;51019;46.090;6.350;2022-07-04T06:44:00;96892.38;;;21.52;89.72
64610;BME280;51019;46.090;6.350;2022-07-04T06:46:28;96881.72;;;21.71;89.18
64610;BME280;51019;46.090;6.350;2022-07-04T06:48:56;96896.13;;;21.97;87.42
64610;BME280;51019;46.090;6.350;2022-07-04T06:51:23;96887.28;;;21.83;90.05
64610;BME280;51019;46.090;6.350;2022-07-04T06:53:49;96890.75;;;22.50;86.45
64610;BME280;51019;46.090;6.350;2022-07-04T06:56:15;96889.00;;;22.95;84.44
64610;BME280;51019;46.090;6.350;2022-07-04T06:58:42;96880.13;;;22.10;83.82
64610;BME280;51019;46.090;6.350;2022-07-04T07:01:08;96889.72;;;21.65;86.82
64610;BME280;51019;46.090;6.350;2022-07-04T07:03:34;96866.56;;;21.05;90.56
64610;BME280;51019;46.090;6.350;2022-07-04T07:06:00;96880.41;;;21.28;90.10
64610;BME280;51019;46.090;6.350;2022-07-04T07:08:29;96878.03;;;21.92;88.97
64610;BME280;51019;46.090;6.350;2022-07-04T07:10:56;96863.50;;;22.08;85.40
64610;BME280;51019;46.090;6.350;2022-07-04T07:13:23;96872.34;;;22.93;82.54
64610;BME280;51019;46.090;6.350;2022-07-04T07:15:49;96850.97;;;22.15;84.27
64610;BME280;51019;46.090;6.350;2022-07-04T07:18:15;96885.03;;;21.67;86.96
64610;BME280;51019;46.090;6.350;2022-07-04T07:20:41;96863.06;;;22.18;83.78
64610;BME280;51019;46.090;6.350;2022-07-04T07:23:07;96878.44;;;22.35;81.64
64610;BME280;51019;46.090;6.350;2022-07-04T07:25:33;96873.53;;;21.93;81.52
64610;BME280;51019;46.090;6.350;2022-07-04T07:27:59;96879.25;;;21.90;84.62
64610;BME280;51019;46.090;6.350;2022-07-04T07:30:25;96860.91;;;22.72;81.80
64610;BME280;51019;46.090;6.350;2022-07-04T07:32:50;96868.41;;;23.08;79.02
64610;BME280;51019;46.090;6.350;2022-07-04T07:35:16;96868.13;;;22.59;79.38
64610;BME280;51019;46.090;6.350;2022-07-04T07:37:41;96863.81;;;22.58;79.59
64610;BME280;51019;46.090;6.350;2022-07-04T07:40:08;96864.97;;;23.33;77.68
64610;BME280;51019;46.090;6.350;2022-07-04T07:42:33;96857.38;;;23.68;76.30
64610;BME280;51019;46.090;6.350;2022-07-04T07:44:59;96861.13;;;23.60;74.83
64610;BME280;51019;46.090;6.350;2022-07-04T07:47:24;96858.13;;;23.81;72.12
64610;BME280;51019;46.090;6.350;2022-07-04T07:49:50;96854.50;;;23.69;73.50
64610;BME280;51019;46.090;6.350;2022-07-04T07:52:16;96864.34;;;24.00;72.25
64610;BME280;51019;46.090;6.350;2022-07-04T07:54:42;96867.34;;;24.53;70.16
64610;BME280;51019;46.090;6.350;2022-07-04T07:57:08;96866.78;;;23.77;71.97
64610;BME280;51019;46.090;6.350;2022-07-04T07:59:33;96881.09;;;25.00;68.27
64610;BME280;51019;46.090;6.350;2022-07-04T08:02:00;96864.22;;;24.75;69.65
64610;BME280;51019;46.090;6.350;2022-07-04T08:04:26;96866.09;;;24.13;71.34
64610;BME280;51019;46.090;6.350;2022-07-04T08:07:05;96863.94;;;24.65;70.52
64610;BME280;51019;46.090;6.350;2022-07-04T08:09:32;96861.66;;;25.05;69.02
64610;BME280;51019;46.090;6.350;2022-07-04T08:11:59;96860.06;;;25.15;68.96
64610;BME280;51019;46.090;6.350;2022-07-04T08:14:25;96866.56;;;25.08;69.95
64610;BME280;51019;46.090;6.350;2022-07-04T08:16:50;96860.16;;;24.90;70.99
64610;BME280;51019;46.090;6.350;2022-07-04T08:19:16;96863.84;;;25.26;68.23
64610;BME280;51019;46.090;6.350;2022-07-04T08:21:41;96872.25;;;25.29;69.39
64610;BME280;51019;46.090;6.350;2022-07-04T08:24:07;96873.78;;;25.07;68.90
64610;BME280;51019;46.090;6.350;2022-07-04T08:26:32;96856.66;;;25.08;69.47
64610;BME280;51019;46.090;6.350;2022-07-04T08:28:58;96855.16;;;25.42;69.17
64610;BME280;51019;46.090;6.350;2022-07-04T08:31:25;96862.03;;;25.68;66.71
64610;BME280;51019;46.090;6.350;2022-07-04T08:33:51;96859.84;;;25.77;65.57
64610;BME280;51019;46.090;6.350;2022-07-04T08:36:18;96835.94;;;26.22;63.94
64610;BME280;51019;46.090;6.350;2022-07-04T08:38:44;96833.25;;;26.68;62.39
64610;BME280;51019;46.090;6.350;2022-07-04T08:41:09;96825.31;;;26.03;61.95
64610;BME280;51019;46.090;6.350;2022-07-04T08:43:35;96825.81;;;26.47;63.20
64610;BME280;51019;46.090;6.350;2022-07-04T08:46:03;96811.38;;;26.65;61.22
64610;BME280;51019;46.090;6.350;2022-07-04T08:48:31;96812.50;;;26.29;60.89
64610;BME280;51019;46.090;6.350;2022-07-04T08:50:59;96807.81;;;26.99;62.20
64610;BME280;51019;46.090;6.350;2022-07-04T08:53:30;96801.34;;;26.72;62.16
64610;BME280;51019;46.090;6.350;2022-07-04T08:55:56;96788.78;;;26.14;61.78
64610;BME280;51019;46.090;6.350;2022-07-04T08:58:42;96798.13;;;25.47;65.97
64610;BME280;51019;46.090;6.350;2022-07-04T09:01:09;96806.44;;;24.49;67.14
64610;BME280;51019;46.090;6.350;2022-07-04T09:03:43;96787.25;;;25.72;63.23
64610;BME280;51019;46.090;6.350;2022-07-04T09:06:10;96797.03;;;26.59;60.44
64610;BME280;51019;46.090;6.350;2022-07-04T09:08:38;96802.91;;;27.53;59.10
64610;BME280;51019;46.090;6.350;2022-07-04T09:11:04;96803.09;;;28.13;57.21
64610;BME280;51019;46.090;6.350;2022-07-04T09:13:36;96801.97;;;28.26;56.22
64610;BME280;51019;46.090;6.350;2022-07-04T09:16:01;96793.56;;;27.27;57.22
64610;BME280;51019;46.090;6.350;2022-07-04T09:18:35;96797.88;;;27.57;54.38
64610;BME280;51019;46.090;6.350;2022-07-04T09:21:09;96794.34;;;26.59;57.13
64610;BME280;51019;46.090;6.350;2022-07-04T09:23:39;96792.13;;;26.56;59.18
64610;BME280;51019;46.090;6.350;2022-07-04T09:28:40;96784.34;;;27.68;55.42
64610;BME280;51019;46.090;6.350;2022-07-04T09:31:24;96775.41;;;27.51;56.26
64610;BME280;51019;46.090;6.350;2022-07-04T09:36:18;96776.75;;;28.54;52.46
64610;BME280;51019;46.090;6.350;2022-07-04T09:38:44;96755.41;;;28.74;50.73
64610;BME280;51019;46.090;6.350;2022-07-04T09:41:09;96782.38;;;27.97;54.26
64610;BME280;51019;46.090;6.350;2022-07-04T09:44:05;96776.81;;;28.04;55.01
64610;BME280;51019;46.090;6.350;2022-07-04T09:46:32;96790.16;;;28.71;53.97
64610;BME280;51019;46.090;6.350;2022-07-04T09:48:58;96793.25;;;28.79;53.33
64610;BME280;51019;46.090;6.350;2022-07-04T09:51:47;96795.41;;;28.61;52.55
64610;BME280;51019;46.090;6.350;2022-07-04T09:54:15;96776.88;;;26.97;56.27
64610;BME280;51019;46.090;6.350;2022-07-04T09:56:45;96787.91;;;28.24;55.83
64610;BME280;51019;46.090;6.350;2022-07-04T09:59:10;96798.56;;;28.52;54.27
64610;BME280;51019;46.090;6.350;2022-07-04T10:01:36;96788.47;;;28.65;52.81
64610;BME280;51019;46.090;6.350;2022-07-04T10:04:04;96746.19;;;28.10;55.03
64610;BME280;51019;46.090;6.350;2022-07-04T10:06:32;96803.41;;;28.00;56.37
64610;BME280;51019;46.090;6.350;2022-07-04T10:09:14;96803.88;;;28.69;53.07
64610;BME280;51019;46.090;6.350;2022-07-04T10:11:42;96806.19;;;28.22;52.62
64610;BME280;51019;46.090;6.350;2022-07-04T10:14:11;96803.28;;;28.07;53.82
64610;BME280;51019;46.090;6.350;2022-07-04T10:16:38;96809.38;;;28.36;53.92
64610;BME280;51019;46.090;6.350;2022-07-04T10:19:05;96828.06;;;27.30;53.76
64610;BME280;51019;46.090;6.350;2022-07-04T10:21:32;96830.31;;;27.50;54.71
64610;BME280;51019;46.090;6.350;2022-07-04T10:24:01;96820.88;;;27.19;56.62
64610;BME280;51019;46.090;6.350;2022-07-04T10:26:30;96826.22;;;27.47;54.85
64610;BME280;51019;46.090;6.350;2022-07-04T10:28:56;96826.94;;;28.38;53.32
64610;BME280;51019;46.090;6.350;2022-07-04T10:31:23;96812.41;;;28.23;52.13
64610;BME280;51019;46.090;6.350;2022-07-04T10:33:50;96822.78;;;28.31;52.76
64610;BME280;51019;46.090;6.350;2022-07-04T10:36:19;96810.72;;;28.55;51.89
64610;BME280;51019;46.090;6.350;2022-07-04T10:41:13;96808.81;;;27.67;52.52
64610;BME280;51019;46.090;6.350;2022-07-04T10:43:52;96837.38;;;27.11;54.11
64610;BME280;51019;46.090;6.350;2022-07-04T10:46:35;96827.56;;;27.78;55.14
64610;BME280;51019;46.090;6.350;2022-07-04T10:49:05;96828.78;;;28.54;53.64
64610;BME280;51019;46.090;6.350;2022-07-04T10:51:48;96829.25;;;29.12;53.27
64610;BME280;51019;46.090;6.350;2022-07-04T10:54:39;96821.25;;;28.57;53.03
64610;BME280;51019;46.090;6.350;2022-07-04T10:57:10;96816.72;;;28.24;55.00
64610;BME280;51019;46.090;6.350;2022-07-04T10:59:37;96809.03;;;28.15;53.82
64610;BME280;51019;46.090;6.350;2022-07-04T11:20:30;96764.81;;;28.94;51.91
64610;BME280;51019;46.090;6.350;2022-07-04T11:23:09;96770.34;;;28.82;53.24
64610;BME280;51019;46.090;6.350;2022-07-04T11:25:35;96769.75;;;28.58;52.72
64610;BME280;51019;46.090;6.350;2022-07-04T11:28:27;96764.81;;;28.28;54.40
64610;BME280;51019;46.090;6.350;2022-07-04T11:30:55;96759.50;;;29.25;52.97
64610;BME280;51019;46.090;6.350;2022-07-04T11:33:24;96740.06;;;30.24;50.71
64610;BME280;51019;46.090;6.350;2022-07-04T11:36:24;96735.00;;;30.48;49.72
64610;BME280;51019;46.090;6.350;2022-07-04T11:41:17;96725.47;;;29.51;49.64
64610;BME280;51019;46.090;6.350;2022-07-04T11:44:07;96722.47;;;30.27;49.66
64610;BME280;51019;46.090;6.350;2022-07-04T11:49:29;96722.44;;;28.89;51.86
64610;BME280;51019;46.090;6.350;2022-07-04T11:51:54;96717.13;;;29.26;52.14
64610;BME280;51019;46.090;6.350;2022-07-04T11:54:21;96703.63;;;29.90;51.26
64610;BME280;51019;46.090;6.350;2022-07-04T11:56:46;96710.56;;;30.80;46.84
64610;BME280;51019;46.090;6.350;2022-07-04T11:59:13;96707.88;;;30.90;47.49
64610;BME280;51019;46.090;6.350;2022-07-04T12:01:41;96696.25;;;31.05;46.95
64610;BME280;51019;46.090;6.350;2022-07-04T12:04:17;96700.41;;;31.58;45.06
64610;BME280;51019;46.090;6.350;2022-07-04T12:06:46;96689.53;;;31.38;46.01
64610;BME280;51019;46.090;6.350;2022-07-04T12:09:13;96689.03;;;31.71;44.47
64610;BME280;51019;46.090;6.350;2022-07-04T12:11:56;96684.63;;;31.96;42.49
64610;BME280;51019;46.090;6.350;2022-07-04T12:14:25;96686.97;;;32.43;42.89
64610;BME280;51019;46.090;6.350;2022-07-04T12:17:18;96668.13;;;31.87;45.56
64610;BME280;51019;46.090;6.350;2022-07-04T12:19:54;96684.03;;;32.29;44.15
64610;BME280;51019;46.090;6.350;2022-07-04T12:24:57;96659.50;;;31.24;46.53
64610;BME280;51019;46.090;6.350;2022-07-04T12:27:24;96660.56;;;31.28;45.59
64610;BME280;51019;46.090;6.350;2022-07-04T12:29:50;96656.00;;;31.14;44.92
64610;BME280;51019;46.090;6.350;2022-07-04T12:32:16;96641.31;;;31.86;43.08
64610;BME280;51019;46.090;6.350;2022-07-04T12:34:43;96643.94;;;32.16;44.03
64610;BME280;51019;46.090;6.350;2022-07-04T12:37:10;96645.28;;;32.24;41.62
64610;BME280;51019;46.090;6.350;2022-07-04T12:39:38;96635.91;;;31.75;43.25
64610;BME280;51019;46.090;6.350;2022-07-04T12:42:05;96638.66;;;31.45;46.76
64610;BME280;51019;46.090;6.350;2022-07-04T12:44:31;96636.94;;;31.95;46.24
64610;BME280;51019;46.090;6.350;2022-07-04T12:46:57;96632.94;;;31.62;45.08
64610;BME280;51019;46.090;6.350;2022-07-04T12:49:22;96635.97;;;31.15;44.45
64610;BME280;51019;46.090;6.350;2022-07-04T12:51:48;96614.53;;;31.38;45.55
64610;BME280;51019;46.090;6.350;2022-07-04T12:54:15;96623.75;;;31.48;46.20
64610;BME280;51019;46.090;6.350;2022-07-04T12:56:45;96622.06;;;31.92;43.93
64610;BME280;51019;46.090;6.350;2022-07-04T12:59:13;96616.72;;;31.67;43.12
64610;BME280;51019;46.090;6.350;2022-07-04T13:01:41;96611.50;;;31.91;44.16
64610;BME280;51019;46.090;6.350;2022-07-04T13:04:07;96619.56;;;32.11;45.60
64610;BME280;51019;46.090;6.350;2022-07-04T13:06:33;96593.06;;;32.52;42.75
64610;BME280;51019;46.090;6.350;2022-07-04T13:08:58;96591.28;;;33.15;41.89
64610;BME280;51019;46.090;6.350;2022-07-04T13:11:24;96586.81;;;33.30;42.94
64610;BME280;51019;46.090;6.350;2022-07-04T13:14:09;96570.38;;;33.16;43.86
64610;BME280;51019;46.090;6.350;2022-07-04T13:16:35;96576.28;;;32.94;42.73
64610;BME280;51019;46.090;6.350;2022-07-04T13:19:01;96569.78;;;32.46;42.23
64610;BME280;51019;46.090;6.350;2022-07-04T13:21:27;96570.13;;;32.29;43.54
64610;BME280;51019;46.090;6.350;2022-07-04T13:23:53;96560.81;;;32.90;42.01
64610;BME280;51019;46.090;6.350;2022-07-04T13:26:19;96569.13;;;32.10;43.76
64610;BME280;51019;46.090;6.350;2022-07-04T13:28:47;96561.31;;;32.53;42.02
64610;BME280;51019;46.090;6.350;2022-07-04T13:31:12;96545.94;;;33.16;40.61
64610;BME280;51019;46.090;6.350;2022-07-04T13:33:40;96559.59;;;32.67;40.73
64610;BME280;51019;46.090;6.350;2022-07-04T13:36:06;96575.34;;;32.26;40.87
64610;BME280;51019;46.090;6.350;2022-07-04T13:38:32;96555.28;;;33.34;41.85
64610;BME280;51019;46.090;6.350;2022-07-04T13:40:57;96584.09;;;32.57;42.08